Washburn, Iowa
Current Conditions -  °F | °C
As of 5:54 AM on Tuesday 27 Jan 2015 (Local Time) from KALO Reporting Station
Overcast Overcast  
Wind Chill: 28°   Ceiling: 2400
Heat Index: 33°   Visibility: 10mi
Dew Point: 31°   Wind: 6mph
Humidity: 92%   Direction: 300°WNW
Pressure: 30.07"   Gusts: NA
Location:  42.4105°N, 92.272°W
Report Text: KALO 271154Z AUTO 30005KT 10SM OVC024 01/M01 A3007 RMK AO2 SLP188 70001 T00061006 10006 21017 53017
Loading
Personal Weather Stations






























Interactive Weather Map New forecast layout! Learn more

10-Day Weather Forecast

Advertisements
Track Severe Weather on mobile